KSUA/SUA METAR and TAF weather

Enter ICAO airport designator
Station Type Date Time Source
KSUA METAR 2021/07/29 18:47 UTC NOAA

KSUA 291847Z 12008KT 7SM VCSH SCT020 BKN030 31/24 A3003


Station Type Date Time Source
KSUA Decoded METAR 2021/07/29 18:47 UTC NOAA

Stuart, Witham Field Airport, FL, United States (KSUA) 27-10-54N 080-13-16W
Jul 29, 2021 - 02:47 PM EDT / 2021.07.29 1847 UTC
Wind: from the ESE (120 degrees) at 9 MPH (8 KT):0
Visibility: 7 mile(s):0
Sky conditions: mostly cloudy
Weather: showers in the vicinity
Temperature: 87 F (31 C)
Heat index: 95.7 F (35.4 C):1
Dew Point: 75 F (24 C)
Relative Humidity: 66%
Pressure (altimeter): 30.03 in. Hg (1016 hPa)
ob: KSUA 291847Z 12008KT 7SM VCSH SCT020 BKN030 31/24 A3003
cycle: 19

Station Type Date Time Source
KSUA TAF 2021/07/29 18:42 UTC NOAA

TAF KSUA 291740Z 2918/3018 13006KT P6SM SCT015 SCT030 BKN150
FM291900 12008KT P6SM VCTS SCT015 SCT030CB BKN150
TEMPO 2920/2924 2SM TSRA SCT015 BKN030CB
FM300000 VRB03KT P6SM FEW035 SCT080 BKN250
FM301400 21007KT P6SM FEW035 SCT150
AMD NOT SKED

Example: see airport list